Time;durP1;ratioP1;P1;durP2;ratioP2;P2;SDS_P1;SDS_P2;PMS_P1;PMS_P2;Temp;Humidity;BMP_temperature;BMP_pressure;BME280_temperature;BME280_humidity;BME280_pressure;Samples;Min_cycle;Max_cycle;Signal;HPM_P1;HPM_P2
2023/01/14 00:00:27;;;;;;;0.77;0.77;;;5.60;99.90;;;;;;10440347;28;20088;-79
2023/01/14 00:05:28;;;;;;;2.30;1.80;;;5.50;99.90;;;;;;10429523;28;20031;-82
2023/01/14 00:10:29;;;;;;;3.50;2.63;;;5.50;99.90;;;;;;10442074;28;20079;-80
2023/01/14 00:15:29;;;;;;;0.00;0.00;;;5.50;99.90;;;;;;10439968;28;20025;-78
2023/01/14 00:20:30;;;;;;;1.13;1.07;;;5.40;99.90;;;;;;10418198;28;20037;-79
2023/01/14 00:25:34;;;;;;;0.17;0.17;;;5.40;99.90;;;;;;10445319;28;20029;-80
2023/01/14 00:30:34;;;;;;;0.20;0.20;;;5.40;99.90;;;;;;10420140;28;20036;-79
2023/01/14 00:35:35;;;;;;;0.83;0.83;;;5.30;99.90;;;;;;10449392;28;20542;-82
2023/01/14 00:40:35;;;;;;;2.67;1.10;;;5.30;99.90;;;;;;10417454;28;20090;-78
2023/01/14 00:45:36;;;;;;;0.40;0.40;;;5.30;99.90;;;;;;10445230;28;20033;-78
2023/01/14 00:50:36;;;;;;;0.00;0.00;;;5.30;99.90;;;;;;10444802;28;20052;-79
2023/01/14 00:55:37;;;;;;;0.07;0.07;;;5.20;99.90;;;;;;10446192;28;20138;-78
2023/01/14 01:00:38;;;;;;;1.47;1.40;;;5.20;99.90;;;;;;10443383;28;20060;-82
2023/01/14 01:05:39;;;;;;;0.07;0.07;;;5.10;99.90;;;;;;10439849;28;20500;-78
2023/01/14 01:10:42;;;;;;;0.00;0.00;;;5.10;99.90;;;;;;10446146;28;20065;-78
2023/01/14 01:15:43;;;;;;;0.20;0.20;;;5.10;99.90;;;;;;10435846;28;20095;-78
2023/01/14 01:20:44;;;;;;;0.00;0.00;;;5.10;99.90;;;;;;10441674;28;20124;-80
2023/01/14 01:25:44;;;;;;;0.50;0.50;;;5.00;99.90;;;;;;10444077;28;20040;-82
2023/01/14 01:30:45;;;;;;;15.50;2.10;;;5.00;99.90;;;;;;10444294;28;20397;-78
2023/01/14 01:35:46;;;;;;;0.30;0.30;;;5.00;99.90;;;;;;10445165;28;20127;-78
2023/01/14 01:40:46;;;;;;;0.00;0.00;;;5.00;99.90;;;;;;10443735;28;20040;-81
2023/01/14 01:45:49;;;;;;;0.37;0.37;;;4.90;99.90;;;;;;10441327;28;20033;-79
2023/01/14 01:50:57;;;;;;;1.60;0.87;;;5.00;99.90;;;;;;10445653;28;20652;-81
2023/01/14 01:55:59;;;;;;;0.33;0.20;;;5.00;99.90;;;;;;10440293;28;20061;-78
2023/01/14 02:01:00;;;;;;;1.53;1.43;;;5.10;99.90;;;;;;10435231;28;20052;-79
2023/01/14 02:06:01;;;;;;;1.73;1.63;;;5.20;99.90;;;;;;10443640;28;20051;-78
2023/01/14 02:11:19;;;;;;;0.00;0.00;;;5.30;99.90;;;;;;10434448;28;20083;-78
2023/01/14 02:16:20;;;;;;;0.77;0.77;;;5.30;99.90;;;;;;10434259;28;20052;-79
2023/01/14 02:21:25;;;;;;;2.53;1.50;;;5.40;99.90;;;;;;10441331;28;20373;-78
2023/01/14 02:26:52;;;;;;;0.17;0.17;;;5.40;99.90;;;;;;10442689;28;20039;-82
2023/01/14 02:32:20;;;;;;;0.00;0.00;;;5.40;99.90;;;;;;10423766;28;20025;-81
2023/01/14 02:37:27;;;;;;;1.67;1.30;;;5.40;99.90;;;;;;10405873;28;20128;-78
2023/01/14 02:48:36;;;;;;;;;;;5.50;99.90;;;;;;10378720;28;20064;-80
2023/01/14 02:53:37;;;;;;;1.90;1.80;;;5.50;99.90;;;;;;10438113;28;19912;-81
2023/01/14 02:58:56;;;;;;;0.00;0.00;;;5.50;99.90;;;;;;10428058;28;20052;-78
2023/01/14 03:04:16;;;;;;;0.03;0.03;;;5.50;99.90;;;;;;10429049;28;20146;-80
2023/01/14 03:09:51;;;;;;;0.00;0.00;;;5.50;99.90;;;;;;10390304;28;20063;-81
2023/01/14 03:15:07;;;;;;;0.30;0.30;;;5.50;99.90;;;;;;10422581;28;20395;-78
2023/01/14 03:20:22;;;;;;;0.40;0.40;;;5.50;99.90;;;;;;10430506;28;20033;-81
2023/01/14 03:25:25;;;;;;;1.10;1.03;;;5.50;99.90;;;;;;10441832;28;20025;-78
2023/01/14 03:30:30;;;;;;;0.00;0.00;;;5.50;99.90;;;;;;10412426;28;20032;-78
2023/01/14 03:35:40;;;;;;;0.00;0.00;;;5.50;99.90;;;;;;10438277;28;20111;-79
2023/01/14 03:40:42;;;;;;;0.40;0.40;;;5.50;99.90;;;;;;10434889;28;20061;-81
2023/01/14 03:45:45;;;;;;;0.40;0.30;;;5.50;99.90;;;;;;10442850;28;20040;-78
2023/01/14 03:51:10;;;;;;;0.00;0.00;;;5.40;99.90;;;;;;10436892;28;20127;-79
2023/01/14 03:56:29;;;;;;;2.10;1.83;;;5.40;99.90;;;;;;10449799;28;20028;-81
2023/01/14 04:01:44;;;;;;;3.13;1.90;;;5.30;99.90;;;;;;10446466;28;20085;-78
2023/01/14 04:06:45;;;;;;;0.00;0.00;;;5.20;99.90;;;;;;10426379;28;20482;-78
2023/01/14 04:11:46;;;;;;;0.00;0.00;;;5.10;99.90;;;;;;10438493;28;20782;-78
2023/01/14 04:16:47;;;;;;;0.43;0.43;;;5.10;99.90;;;;;;10436227;28;20044;-80
2023/01/14 04:21:47;;;;;;;0.23;0.23;;;5.10;99.90;;;;;;10448739;28;20098;-81
2023/01/14 04:26:48;;;;;;;0.00;0.00;;;5.20;99.90;;;;;;10447792;28;20032;-78
2023/01/14 04:31:49;;;;;;;1.00;0.53;;;5.10;99.90;;;;;;10440006;28;20543;-79
2023/01/14 04:36:49;;;;;;;0.23;0.23;;;5.10;99.90;;;;;;10443770;28;20043;-79
2023/01/14 04:47:09;;;;;;;0.83;0.83;;;5.10;99.90;;;;;;10440950;28;20463;-80
2023/01/14 04:52:09;;;;;;;1.07;0.97;;;5.10;99.90;;;;;;10446587;28;20033;-80
2023/01/14 04:57:10;;;;;;;3.70;1.80;;;5.00;99.90;;;;;;10440968;28;20083;-78
2023/01/14 05:02:11;;;;;;;0.60;0.60;;;5.00;99.90;;;;;;10434500;28;20064;-79
2023/01/14 05:07:11;;;;;;;0.00;0.00;;;5.00;99.90;;;;;;10447578;28;20673;-81
2023/01/14 05:12:12;;;;;;;0.23;0.23;;;5.00;99.90;;;;;;10441100;28;20498;-79
2023/01/14 05:17:12;;;;;;;0.57;0.57;;;5.00;99.90;;;;;;10443820;28;20032;-78
2023/01/14 05:22:13;;;;;;;0.00;0.00;;;5.00;99.90;;;;;;10429864;28;20391;-78
2023/01/14 05:27:13;;;;;;;0.00;0.00;;;5.00;99.90;;;;;;10442032;28;20545;-78
2023/01/14 05:32:14;;;;;;;2.03;1.47;;;5.00;99.90;;;;;;10440919;28;20025;-79
2023/01/14 05:37:15;;;;;;;0.67;0.67;;;5.00;99.90;;;;;;10440461;28;20029;-81
2023/01/14 05:47:35;;;;;;;0.00;0.00;;;4.90;99.90;;;;;;10427247;28;20052;-78
2023/01/14 05:52:35;;;;;;;0.00;0.00;;;4.90;99.90;;;;;;10436927;28;20029;-79
2023/01/14 05:57:36;;;;;;;0.00;0.00;;;4.80;99.90;;;;;;10437967;28;20059;-77
2023/01/14 06:07:56;;;;;;;1.40;1.30;;;4.80;99.90;;;;;;10441706;28;20044;-78
2023/01/14 06:13:02;;;;;;;0.20;0.20;;;4.80;99.90;;;;;;10445426;28;20071;-77
2023/01/14 06:18:13;;;;;;;2.00;1.50;;;4.80;99.90;;;;;;10434768;28;20035;-78
2023/01/14 06:23:14;;;;;;;0.30;0.30;;;4.80;99.90;;;;;;10443112;28;20127;-78
2023/01/14 06:28:16;;;;;;;0.50;0.50;;;4.80;99.90;;;;;;10444708;28;20028;-78
2023/01/14 06:33:17;;;;;;;2.53;2.33;;;4.80;99.90;;;;;;10443691;28;20035;-78
2023/01/14 06:38:17;;;;;;;3.40;1.70;;;4.80;99.90;;;;;;10444449;28;20035;-79
2023/01/14 06:43:18;;;;;;;2.20;2.10;;;4.80;99.90;;;;;;10443629;28;20044;-81
2023/01/14 06:48:19;;;;;;;0.57;0.57;;;4.90;99.90;;;;;;10442668;28;20023;-80
2023/01/14 06:53:19;;;;;;;3.13;2.50;;;4.80;99.90;;;;;;10442727;28;20033;-78
2023/01/14 06:58:20;;;;;;;7.47;1.60;;;4.80;99.90;;;;;;10445806;28;20061;-80
2023/01/14 07:03:20;;;;;;;0.47;0.47;;;4.90;99.90;;;;;;10441972;28;20053;-77
2023/01/14 07:08:22;;;;;;;3.40;2.60;;;4.90;99.90;;;;;;10442414;28;20795;-76
2023/01/14 07:13:23;;;;;;;1.50;1.40;;;4.90;99.90;;;;;;10442204;28;20044;-76
2023/01/14 07:18:25;;;;;;;5.40;1.93;;;4.90;99.90;;;;;;10440749;28;20025;-77
2023/01/14 07:23:27;;;;;;;0.77;0.77;;;4.90;99.90;;;;;;10423048;28;20029;-76
2023/01/14 07:28:28;;;;;;;1.47;1.37;;;5.00;99.90;;;;;;10408962;28;20028;-78
2023/01/14 07:33:28;;;;;;;5.87;1.40;;;5.00;99.90;;;;;;10403793;28;20037;-78
2023/01/14 07:38:29;;;;;;;2.13;2.03;;;5.10;99.90;;;;;;10408077;28;20021;-77
2023/01/14 07:43:29;;;;;;;1.30;1.30;;;5.10;99.90;;;;;;10420776;28;20041;-80
2023/01/14 07:48:30;;;;;;;1.27;1.17;;;5.20;99.90;;;;;;10405636;28;20033;-78
2023/01/14 07:53:31;;;;;;;2.87;2.67;;;5.20;99.90;;;;;;10409843;28;20021;-76
2023/01/14 07:58:33;;;;;;;1.57;1.47;;;5.30;99.90;;;;;;10408015;28;20067;-77
2023/01/14 08:03:33;;;;;;;1.33;0.63;;;5.30;99.90;;;;;;10408077;28;20050;-78
2023/01/14 08:08:34;;;;;;;0.20;0.20;;;5.40;99.90;;;;;;10403588;28;20470;-80
2023/01/14 08:13:35;;;;;;;1.63;1.53;;;5.50;99.90;;;;;;10402588;28;20034;-79
2023/01/14 08:18:36;;;;;;;1.60;1.50;;;5.60;99.90;;;;;;10404147;28;20033;-80
2023/01/14 08:23:37;;;;;;;1.60;1.50;;;5.70;99.90;;;;;;10402048;28;20037;-81
2023/01/14 08:28:38;;;;;;;2.80;2.67;;;5.70;99.90;;;;;;10410185;28;20470;-79
2023/01/14 08:33:41;;;;;;;3.20;2.30;;;5.80;99.90;;;;;;10417011;28;20025;-79
2023/01/14 08:38:44;;;;;;;2.53;2.10;;;5.90;99.90;;;;;;10429013;28;20045;-78
2023/01/14 08:43:49;;;;;;;1.80;1.57;;;5.90;99.90;;;;;;10441221;28;20029;-78
2023/01/14 08:48:50;;;;;;;0.50;0.50;;;6.00;99.90;;;;;;10442568;28;20033;-79
2023/01/14 08:53:50;;;;;;;0.97;0.93;;;6.00;99.90;;;;;;10433629;28;20021;-78
2023/01/14 08:58:51;;;;;;;1.33;1.23;;;6.00;99.90;;;;;;10428796;28;20052;-80
2023/01/14 09:03:53;;;;;;;0.27;0.27;;;6.10;99.90;;;;;;10428851;28;20052;-81
2023/01/14 09:19:49;;;;;;;0.10;0.10;;;5.80;99.90;;;;;;10448848;28;20469;-78
2023/01/14 09:24:50;;;;;;;0.50;0.50;;;5.70;99.90;;;;;;10433641;28;20029;-78
2023/01/14 09:29:51;;;;;;;0.27;0.27;;;6.00;99.90;;;;;;10427144;28;20053;-78
2023/01/14 09:34:52;;;;;;;1.43;0.87;;;6.30;99.90;;;;;;10440419;28;20100;-79
2023/01/14 09:39:53;;;;;;;0.40;0.40;;;6.60;99.90;;;;;;10448446;28;20059;-78
2023/01/14 09:45:15;;;;;;;3.20;2.03;;;7.00;99.90;;;;;;10437980;28;20492;-77
2023/01/14 09:50:20;;;;;;;0.27;0.27;;;7.10;99.90;;;;;;10490615;23;20067;-85
2023/01/14 09:55:31;;;;;;;0.93;0.93;;;7.30;99.90;;;;;;10445512;28;20476;-89
2023/01/14 10:00:58;;;;;;;0.10;0.10;;;7.50;99.90;;;;;;10436811;28;20036;-88
2023/01/14 10:06:03;;;;;;;;;;;7.60;99.90;;;;;;10467799;28;20028;-89
2023/01/14 10:11:07;;;;;;;2.10;1.90;;;7.70;99.90;;;;;;10446102;28;19954;-89
2023/01/14 10:16:39;;;;;;;1.13;1.07;;;7.80;99.90;;;;;;10437447;28;20040;-87
2023/01/14 10:21:53;;;;;;;1.87;1.73;;;7.90;99.90;;;;;;10452536;28;20041;-88
2023/01/14 10:26:53;;;;;;;0.00;0.00;;;7.90;99.90;;;;;;10425514;28;20456;-87
2023/01/14 10:32:01;;;;;;;0.37;0.37;;;8.10;99.90;;;;;;10445034;28;20116;-87
2023/01/14 10:37:01;;;;;;;0.40;0.40;;;8.20;99.90;;;;;;10462111;28;20064;-84
2023/01/14 10:42:03;;;;;;;0.00;0.00;;;8.20;99.90;;;;;;10430717;28;20036;-86
2023/01/14 10:47:16;;;;;;;0.43;0.43;;;8.40;99.90;;;;;;10443191;28;20310;-82
2023/01/14 10:52:29;;;;;;;0.27;0.27;;;8.40;99.90;;;;;;10421984;28;20032;-84
2023/01/14 10:57:44;;;;;;;0.00;0.00;;;8.50;99.90;;;;;;10419835;28;20468;-89
2023/01/14 11:02:53;;;;;;;0.30;0.30;;;8.60;99.90;;;;;;10405090;28;20074;-91
2023/01/14 11:07:57;;;;;;;0.20;0.20;;;8.80;99.90;;;;;;10407282;23;20583;-78
2023/01/14 11:13:14;;;;;;;0.63;0.40;;;8.90;99.90;;;;;;10402186;28;20408;-78
2023/01/14 11:18:22;;;;;;;0.20;0.20;;;8.90;99.90;;;;;;10368911;28;20029;-79
2023/01/14 11:23:30;;;;;;;0.55;0.55;;;9.10;99.90;;;;;;10393129;28;20405;-78
2023/01/14 11:28:30;;;;;;;0.00;0.00;;;9.10;99.90;;;;;;10399927;28;20036;-77
2023/01/14 11:33:33;;;;;;;5.60;2.70;;;9.30;99.90;;;;;;10406105;28;20030;-78
2023/01/14 11:38:42;;;;;;;1.00;1.00;;;9.30;99.90;;;;;;10412510;28;20025;-78
2023/01/14 11:44:01;;;;;;;0.10;0.10;;;9.30;99.90;;;;;;10413422;28;20507;-78
2023/01/14 11:49:21;;;;;;;1.27;1.20;;;9.20;99.90;;;;;;10368567;28;20485;-78
2023/01/14 11:54:25;;;;;;;0.00;0.00;;;9.50;99.90;;;;;;10387949;28;20037;-78
2023/01/14 11:59:31;;;;;;;0.08;0.08;;;9.60;99.90;;;;;;10402118;28;20053;-78
2023/01/14 12:04:51;;;;;;;0.10;0.10;;;9.70;99.90;;;;;;10404107;28;20045;-78
2023/01/14 12:10:03;;;;;;;5.88;1.17;;;9.50;99.90;;;;;;10417504;28;20774;-77
2023/01/14 12:20:33;;;;;;;0.70;0.37;;;9.10;99.90;;;;;;10400733;28;20042;-79
2023/01/14 12:25:45;;;;;;;0.80;0.80;;;9.00;99.90;;;;;;10409870;28;20025;-76
2023/01/14 12:30:52;;;;;;;1.35;0.98;;;8.90;99.90;;;;;;10399559;28;20475;-77
2023/01/14 12:36:00;;;;;;;0.20;0.20;;;8.80;99.90;;;;;;10406725;28;20479;-77
2023/01/14 12:46:25;;;;;;;0.10;0.10;;;8.20;99.90;;;;;;10401611;28;20415;-78
2023/01/14 12:51:30;;;;;;;0.33;0.33;;;8.10;99.90;;;;;;10411650;28;20020;-78
2023/01/14 12:56:41;;;;;;;4.30;2.63;;;8.10;99.90;;;;;;10420547;28;20089;-78
2023/01/14 13:01:51;;;;;;;0.83;0.57;;;7.90;99.90;;;;;;10426571;28;20131;-77
2023/01/14 13:06:57;;;;;;;10.47;3.40;;;7.80;99.90;;;;;;10393770;28;20061;-76
2023/01/14 13:11:59;;;;;;;1.10;1.00;;;8.00;99.90;;;;;;10423329;28;20514;-80
2023/01/14 13:17:04;;;;;;;1.90;0.87;;;8.40;99.90;;;;;;10406154;28;20832;-80
2023/01/14 13:22:08;;;;;;;0.47;0.47;;;8.70;99.90;;;;;;10411130;28;20121;-78
2023/01/14 13:27:35;;;;;;;1.13;1.03;;;8.70;99.90;;;;;;10417507;28;20021;-80
2023/01/14 13:33:01;;;;;;;0.00;0.00;;;8.70;99.90;;;;;;10411463;28;20030;-79
2023/01/14 13:38:17;;;;;;;0.73;0.73;;;8.70;99.90;;;;;;10414538;28;20040;-78
2023/01/14 13:43:25;;;;;;;0.70;0.70;;;8.60;99.90;;;;;;10413824;28;20091;-78
2023/01/14 13:48:40;;;;;;;0.40;0.40;;;8.60;99.90;;;;;;10407534;28;20100;-78
2023/01/14 13:53:41;;;;;;;1.90;1.40;;;8.50;99.90;;;;;;10419349;28;20031;-77
2023/01/14 13:58:49;;;;;;;2.33;1.83;;;8.10;99.90;;;;;;10424204;28;20032;-79
2023/01/14 14:03:54;;;;;;;0.00;0.00;;;7.90;99.90;;;;;;10403231;28;20038;-78
2023/01/14 14:09:06;;;;;;;1.45;1.35;;;7.60;99.90;;;;;;10365950;28;20058;-78
2023/01/14 14:14:20;;;;;;;1.80;1.37;;;7.50;99.90;;;;;;10358729;28;20036;-78
2023/01/14 14:19:25;;;;;;;0.40;0.40;;;7.50;99.90;;;;;;10361448;28;20407;-78
2023/01/14 14:24:32;;;;;;;2.37;1.17;;;7.40;99.90;;;;;;10359468;28;20397;-79
2023/01/14 14:29:35;;;;;;;0.20;0.20;;;7.30;99.90;;;;;;10358301;28;20025;-78
2023/01/14 14:34:35;;;;;;;0.40;0.40;;;7.30;99.90;;;;;;10357854;28;20378;-79
2023/01/14 14:39:39;;;;;;;1.43;1.40;;;7.20;99.90;;;;;;10361598;28;20033;-77
2023/01/14 14:45:00;;;;;;;3.83;2.00;;;7.10;99.90;;;;;;10350572;28;20853;-79
2023/01/14 14:50:01;;;;;;;1.80;1.70;;;7.10;99.90;;;;;;10336839;28;20030;-77
2023/01/14 14:55:09;;;;;;;4.27;1.87;;;6.90;99.90;;;;;;10368420;28;20077;-78
2023/01/14 15:00:14;;;;;;;3.73;3.03;;;6.70;99.90;;;;;;10359322;28;20270;-78
2023/01/14 15:05:21;;;;;;;3.70;3.07;;;6.50;99.90;;;;;;10331356;28;20050;-78
2023/01/14 15:10:35;;;;;;;0.00;0.00;;;6.30;99.90;;;;;;10377607;28;20547;-78
2023/01/14 15:15:36;;;;;;;6.67;2.53;;;6.20;99.90;;;;;;10380909;28;20522;-78
2023/01/14 15:20:38;;;;;;;0.47;0.47;;;6.10;99.90;;;;;;10363258;28;20485;-77
2023/01/14 15:25:40;;;;;;;0.37;0.37;;;5.90;99.90;;;;;;10388170;28;20064;-77
2023/01/14 15:30:41;;;;;;;0.40;0.40;;;5.80;99.90;;;;;;10384222;28;20039;-77
2023/01/14 15:35:44;;;;;;;4.37;3.87;;;5.70;99.90;;;;;;10379563;28;20033;-77
2023/01/14 15:40:46;;;;;;;2.23;2.07;;;5.60;99.90;;;;;;10365944;28;20034;-77
2023/01/14 15:45:48;;;;;;;1.60;0.67;;;5.50;99.90;;;;;;10384817;28;20391;-77
2023/01/14 15:51:01;;;;;;;3.70;1.70;;;5.40;99.90;;;;;;10377314;28;20065;-77
2023/01/14 15:56:16;;;;;;;0.73;0.70;;;5.40;99.90;;;;;;10378740;28;20033;-77
2023/01/14 16:01:21;;;;;;;0.33;0.33;;;5.30;99.90;;;;;;10372351;28;20119;-77
2023/01/14 16:06:34;;;;;;;0.00;0.00;;;5.20;99.90;;;;;;10371264;28;20060;-77
2023/01/14 16:11:42;;;;;;;0.20;0.20;;;5.10;99.90;;;;;;10394458;28;20098;-78
2023/01/14 16:16:43;;;;;;;1.17;1.07;;;5.10;99.90;;;;;;10393918;28;20501;-77
2023/01/14 16:21:44;;;;;;;0.00;0.00;;;5.10;99.90;;;;;;10388856;28;20029;-78
2023/01/14 16:26:46;;;;;;;0.63;0.63;;;5.00;99.90;;;;;;10396899;28;20021;-77
2023/01/14 16:31:46;;;;;;;0.07;0.07;;;4.90;99.90;;;;;;10393501;28;20372;-77
2023/01/14 16:36:48;;;;;;;0.20;0.20;;;4.80;99.90;;;;;;10395221;28;20029;-77
2023/01/14 16:41:51;;;;;;;0.63;0.63;;;4.80;99.90;;;;;;10380747;28;20048;-78
2023/01/14 16:46:52;;;;;;;2.93;1.20;;;4.70;99.90;;;;;;10365903;28;20076;-77
2023/01/14 16:51:53;;;;;;;2.30;2.13;;;4.70;99.90;;;;;;10359380;28;20112;-78
2023/01/14 16:56:54;;;;;;;7.73;3.00;;;4.70;99.90;;;;;;10384430;28;20124;-77
2023/01/14 17:01:55;;;;;;;1.37;1.27;;;4.60;99.90;;;;;;10381228;28;20060;-78
2023/01/14 17:06:55;;;;;;;0.00;0.00;;;4.60;99.90;;;;;;10373513;28;20680;-79
2023/01/14 17:17:16;;;;;;;5.20;2.03;;;4.50;99.90;;;;;;10379854;28;20029;-78
2023/01/14 17:22:16;;;;;;;2.00;1.80;;;4.60;99.90;;;;;;10377948;28;20041;-75
2023/01/14 17:27:18;;;;;;;0.00;0.00;;;4.50;99.90;;;;;;10381116;28;20033;-76
2023/01/14 17:32:18;;;;;;;1.60;1.50;;;4.50;99.90;;;;;;10393740;28;20025;-78
2023/01/14 17:37:19;;;;;;;2.80;1.80;;;4.50;99.90;;;;;;10413539;28;20029;-77
2023/01/14 17:42:22;;;;;;;11.73;4.87;;;4.50;99.90;;;;;;10407188;28;20412;-76
2023/01/14 17:47:23;;;;;;;0.43;0.43;;;4.50;99.90;;;;;;10368150;28;20117;-78
2023/01/14 17:52:24;;;;;;;2.03;1.90;;;4.40;99.90;;;;;;10397464;28;20511;-78
2023/01/14 17:57:27;;;;;;;4.27;3.23;;;4.40;99.90;;;;;;10419950;28;20039;-78
2023/01/14 18:02:28;;;;;;;0.97;0.97;;;4.40;99.90;;;;;;10420233;28;20622;-78
2023/01/14 18:07:29;;;;;;;9.23;1.70;;;4.30;99.90;;;;;;10384074;28;20061;-79
2023/01/14 18:12:29;;;;;;;0.30;0.30;;;4.30;99.90;;;;;;10355631;28;20080;-77
2023/01/14 18:17:30;;;;;;;1.00;1.00;;;4.30;99.90;;;;;;10360084;28;20113;-78
2023/01/14 18:22:31;;;;;;;14.40;4.07;;;4.30;99.90;;;;;;10362187;28;20045;-78
2023/01/14 18:27:31;;;;;;;0.90;0.83;;;4.30;99.90;;;;;;10358910;28;20838;-79
2023/01/14 18:32:32;;;;;;;4.80;2.73;;;4.30;99.90;;;;;;10361034;28;20033;-79
2023/01/14 18:37:32;;;;;;;9.77;7.70;;;4.40;99.90;;;;;;10357818;28;20060;-78
2023/01/14 18:42:33;;;;;;;3.70;3.50;;;4.40;99.90;;;;;;10359585;28;20041;-78
2023/01/14 18:47:34;;;;;;;7.73;5.60;;;4.30;99.90;;;;;;10360055;28;20109;-78
2023/01/14 18:52:34;;;;;;;7.47;6.80;;;4.40;99.90;;;;;;10361036;28;20412;-78
2023/01/14 18:57:36;;;;;;;12.13;6.07;;;4.30;99.90;;;;;;10361354;28;20759;-79
2023/01/14 19:02:37;;;;;;;1.50;1.40;;;4.30;99.90;;;;;;10358954;28;20114;-75
2023/01/14 19:07:38;;;;;;;13.60;6.40;;;4.20;99.90;;;;;;10396002;28;20858;-78
2023/01/14 19:12:38;;;;;;;25.83;9.53;;;4.20;99.90;;;;;;10420147;28;20149;-78
2023/01/14 19:17:39;;;;;;;17.80;7.40;;;4.10;99.90;;;;;;10415986;28;20033;-77
2023/01/14 19:22:40;;;;;;;24.20;12.13;;;4.10;99.90;;;;;;10425440;28;20044;-79
2023/01/14 19:27:43;;;;;;;57.90;23.13;;;4.10;99.90;;;;;;10404264;28;20124;-77
2023/01/14 19:32:43;;;;;;;65.37;27.23;;;4.10;99.90;;;;;;10401213;28;20021;-78
2023/01/14 19:37:44;;;;;;;77.67;29.67;;;4.00;99.90;;;;;;10400561;28;20083;-77
2023/01/14 19:42:44;;;;;;;65.17;27.40;;;4.00;99.90;;;;;;10417897;28;20040;-79
2023/01/14 19:47:45;;;;;;;70.67;30.37;;;3.90;99.90;;;;;;10414659;28;20025;-78
2023/01/14 19:52:46;;;;;;;64.30;29.33;;;3.90;99.90;;;;;;10415601;28;20115;-79
2023/01/14 19:57:46;;;;;;;68.83;29.80;;;3.90;99.90;;;;;;10417595;28;20030;-78
2023/01/14 20:02:50;;;;;;;77.47;33.40;;;3.80;99.90;;;;;;10422147;28;20480;-77
2023/01/14 20:07:51;;;;;;;81.83;37.00;;;3.80;99.90;;;;;;10412599;28;20404;-78
2023/01/14 20:12:51;;;;;;;80.83;35.80;;;3.70;99.90;;;;;;10399969;28;20044;-79
2023/01/14 20:17:52;;;;;;;84.23;38.00;;;3.70;99.90;;;;;;10405136;28;20029;-80
2023/01/14 20:22:52;;;;;;;86.20;37.63;;;3.60;99.90;;;;;;10406814;28;20043;-78
2023/01/14 20:27:53;;;;;;;82.93;37.03;;;3.60;99.90;;;;;;10404449;28;20036;-77
2023/01/14 20:32:53;;;;;;;71.57;30.73;;;3.60;99.90;;;;;;10407839;28;20597;-80
2023/01/14 20:37:54;;;;;;;68.80;34.20;;;3.60;99.90;;;;;;10408160;28;20550;-77
2023/01/14 20:42:55;;;;;;;67.67;33.10;;;3.60;99.90;;;;;;10408425;28;20064;-78
2023/01/14 20:53:20;;;;;;;57.10;26.87;;;3.60;99.90;;;;;;10402947;28;20092;-77
2023/01/14 21:03:31;;;;;;;49.60;21.33;;;3.60;99.90;;;;;;10411007;28;20107;-77
2023/01/14 21:08:33;;;;;;;44.40;19.67;;;3.70;99.90;;;;;;10413007;28;20537;-76
2023/01/14 21:24:12;;;;;;;33.63;12.80;;;4.00;99.90;;;;;;10420258;28;20045;-77
2023/01/14 21:29:13;;;;;;;32.60;12.73;;;4.00;99.90;;;;;;10381224;28;20033;-78
2023/01/14 21:34:14;;;;;;;32.70;12.80;;;4.10;99.90;;;;;;10371074;28;20160;-76
2023/01/14 21:39:14;;;;;;;29.37;9.77;;;4.10;99.90;;;;;;10377623;28;20025;-78
2023/01/14 21:44:15;;;;;;;28.50;10.70;;;4.20;99.90;;;;;;10375102;28;20038;-78
2023/01/14 21:49:15;;;;;;;29.83;11.20;;;4.20;99.90;;;;;;10369783;28;20025;-78
2023/01/14 21:54:16;;;;;;;34.27;11.70;;;4.30;99.90;;;;;;10374366;28;20047;-77
2023/01/14 21:59:16;;;;;;;21.87;9.53;;;4.30;99.90;;;;;;10377554;28;20021;-77
2023/01/14 22:04:17;;;;;;;27.00;11.43;;;4.40;99.90;;;;;;10370067;28;20324;-78
2023/01/14 22:09:17;;;;;;;31.90;11.97;;;4.40;99.90;;;;;;10371295;28;20761;-76
2023/01/14 22:14:18;;;;;;;28.13;10.13;;;4.40;99.90;;;;;;10370187;28;20029;-77
2023/01/14 22:19:18;;;;;;;22.43;9.23;;;4.50;99.90;;;;;;10368721;28;20128;-78
2023/01/14 22:24:19;;;;;;;21.23;8.70;;;4.50;99.90;;;;;;10377960;28;20491;-76
2023/01/14 22:29:20;;;;;;;26.63;9.93;;;4.50;99.90;;;;;;10370602;28;20435;-79
2023/01/14 22:34:20;;;;;;;18.47;7.23;;;4.60;99.90;;;;;;10369588;28;20079;-78
2023/01/14 22:39:21;;;;;;;19.87;8.07;;;4.60;99.90;;;;;;10364229;28;20527;-77
2023/01/14 22:44:21;;;;;;;24.23;9.33;;;4.60;99.90;;;;;;10360335;28;20121;-77
2023/01/14 22:49:22;;;;;;;28.43;10.40;;;4.70;99.90;;;;;;10365918;28;20030;-77
2023/01/14 22:54:23;;;;;;;21.47;8.90;;;4.70;99.90;;;;;;10359902;28;20458;-77
2023/01/14 22:59:25;;;;;;;27.77;9.53;;;4.70;99.90;;;;;;10360596;28;20719;-77
2023/01/14 23:04:25;;;;;;;19.87;7.93;;;4.70;99.90;;;;;;10369149;28;20038;-78
2023/01/14 23:09:26;;;;;;;23.23;9.00;;;4.70;99.90;;;;;;10364655;28;20421;-77
2023/01/14 23:14:26;;;;;;;28.00;9.40;;;4.70;99.90;;;;;;10369560;28;20665;-77
2023/01/14 23:19:27;;;;;;;24.93;6.97;;;4.70;99.90;;;;;;10370960;28;20026;-77
2023/01/14 23:24:36;;;;;;;22.53;7.53;;;4.60;99.90;;;;;;10371235;28;20065;-77
2023/01/14 23:29:37;;;;;;;19.60;8.00;;;4.60;99.90;;;;;;10372416;28;20026;-76
2023/01/14 23:34:37;;;;;;;21.77;6.20;;;4.70;99.90;;;;;;10369417;28;20034;-76
2023/01/14 23:39:38;;;;;;;17.47;6.47;;;4.70;99.90;;;;;;10363863;28;20029;-77
2023/01/14 23:44:39;;;;;;;18.13;7.97;;;4.60;99.90;;;;;;10361592;28;20044;-77
2023/01/14 23:49:39;;;;;;;16.43;6.80;;;4.60;99.90;;;;;;10361507;28;20026;-76
2023/01/14 23:54:40;;;;;;;22.53;8.20;;;4.60;99.90;;;;;;10366171;28;20125;-77
2023/01/14 23:59:40;;;;;;;22.00;8.20;;;4.60;99.90;;;;;;10360560;28;20646;-77
